Time;durP1;ratioP1;P1;durP2;ratioP2;P2;SDS_P1;SDS_P2;PMS_P1;PMS_P2;Temp;Humidity;BMP_temperature;BMP_pressure;BME280_temperature;BME280_humidity;BME280_pressure;Samples;Min_cycle;Max_cycle;Signal;HPM_P1;HPM_P2
2022/01/30 00:02:05;;;;;;;51.45;5.60;;;;;;;6.95;72.28;102703.47;5076775;28;20067;-41
2022/01/30 00:04:31;;;;;;;51.08;4.45;;;;;;;6.95;73.01;102706.13;5088644;28;20083;-40
2022/01/30 00:06:56;;;;;;;67.03;5.93;;;;;;;6.90;73.90;102707.41;5076463;28;20107;-41
2022/01/30 00:09:22;;;;;;;45.17;6.38;;;;;;;6.85;75.12;102707.75;5065791;28;20417;-41
2022/01/30 00:11:54;;;;;;;57.38;5.95;;;;;;;6.79;75.91;102706.41;5076964;28;20082;-41
2022/01/30 00:14:21;;;;;;;62.08;6.53;;;;;;;6.76;76.40;102703.06;5071688;28;20040;-41
2022/01/30 00:16:55;;;;;;;58.50;5.63;;;;;;;6.74;77.19;102703.19;5069891;28;20039;-41
2022/01/30 00:19:30;;;;;;;58.35;4.95;;;;;;;6.75;77.93;102699.53;5090779;28;20066;-41
2022/01/30 00:22:13;;;;;;;62.95;4.70;;;;;;;6.71;78.46;102722.13;5074823;28;20039;-41
2022/01/30 00:24:48;;;;;;;61.00;5.57;;;;;;;6.68;78.65;102719.69;5083978;28;20040;-42
2022/01/30 00:27:18;;;;;;;70.50;6.30;;;;;;;6.67;78.73;102717.13;5075080;28;20036;-41
2022/01/30 00:29:43;;;;;;;59.20;5.70;;;;;;;6.71;77.89;102721.28;5059572;28;20034;-42
2022/01/30 00:32:09;;;;;;;67.93;5.85;;;;;;;6.69;77.85;102720.53;5083492;28;20106;-42
2022/01/30 00:34:34;;;;;;;61.92;6.00;;;;;;;6.65;77.69;102719.91;5076200;28;20120;-41
2022/01/30 00:37:03;;;;;;;60.22;6.47;;;;;;;6.63;77.38;102727.19;5077858;28;20060;-42
2022/01/30 00:39:29;;;;;;;53.15;5.43;;;;;;;6.62;77.38;102728.16;5088502;28;20111;-41
2022/01/30 00:41:54;;;;;;;69.43;5.05;;;;;;;6.63;76.82;102731.69;5077380;28;20183;-42
2022/01/30 00:44:19;;;;;;;53.97;5.13;;;;;;;6.62;76.53;102722.81;5056754;28;20029;-41
2022/01/30 00:46:46;;;;;;;59.75;5.78;;;;;;;6.61;75.96;102739.84;5077551;28;20032;-41
2022/01/30 00:49:11;;;;;;;47.00;4.65;;;;;;;6.60;75.68;102738.09;5080370;28;20042;-41
2022/01/30 00:51:37;;;;;;;57.90;4.88;;;;;;;6.66;74.92;102732.34;5050197;28;20036;-41
2022/01/30 00:54:03;;;;;;;62.25;5.38;;;;;;;6.66;75.22;102735.00;5076109;28;20032;-41
2022/01/30 00:56:29;;;;;;;58.70;6.68;;;;;;;6.64;75.50;102726.22;5074475;28;20056;-41
2022/01/30 00:58:54;;;;;;;60.53;5.75;;;;;;;6.62;75.35;102733.50;5061767;28;20519;-41
2022/01/30 01:01:19;;;;;;;69.28;4.55;;;;;;;6.62;75.14;102738.84;5076586;28;20055;-41
2022/01/30 01:03:45;;;;;;;59.20;5.57;;;;;;;6.62;74.71;102736.19;5072065;28;20056;-41
2022/01/30 01:06:10;;;;;;;53.30;4.57;;;;;;;6.65;74.36;102741.31;5080534;28;20051;-41
2022/01/30 01:08:48;;;;;;;58.83;5.90;;;;;;;6.62;75.03;102741.53;5091285;28;20419;-43
2022/01/30 01:24:22;;;;;;;57.75;5.40;;;;;;;6.54;73.56;102752.78;5077115;28;20591;-41
2022/01/30 01:26:47;;;;;;;59.17;4.95;;;;;;;6.52;73.48;102751.16;5056739;28;20036;-41
2022/01/30 01:29:14;;;;;;;37.58;6.80;;;;;;;6.53;74.10;102759.09;5073725;28;20060;-41
2022/01/30 01:31:40;;;;;;;63.40;4.90;;;;;;;6.58;73.08;102748.06;5074457;28;20041;-41
2022/01/30 01:36:36;;;;;;;72.28;7.18;;;;;;;6.52;73.24;102751.16;5076649;28;20115;-42
2022/01/30 01:39:03;;;;;;;45.85;4.45;;;;;;;6.52;72.47;102753.84;5093693;28;20016;-42
2022/01/30 01:41:30;;;;;;;39.95;3.67;;;;;;;6.54;72.39;102754.59;5088704;28;20028;-41
2022/01/30 01:43:55;;;;;;;48.15;4.95;;;;;;;6.55;71.88;102746.44;5073322;28;20120;-41
2022/01/30 01:46:25;;;;;;;39.67;4.72;;;;;;;6.53;71.41;102747.50;5075481;28;20127;-42
2022/01/30 01:48:53;;;;;;;51.20;4.00;;;;;;;6.56;71.20;102758.88;5050073;28;20070;-41
2022/01/30 01:51:30;;;;;;;;;;;;;;;6.48;71.52;102750.53;5073578;28;20029;-41
2022/01/30 01:53:56;;;;;;;60.90;5.43;;;;;;;6.52;71.00;102752.03;5072788;28;19912;-41
2022/01/30 01:56:22;;;;;;;47.10;4.38;;;;;;;6.52;71.49;102757.38;5059443;28;20430;-42
2022/01/30 01:58:48;;;;;;;47.50;4.80;;;;;;;6.46;71.95;102756.97;5089082;28;20028;-41
2022/01/30 02:01:14;;;;;;;56.67;7.53;;;;;;;6.48;72.10;102758.56;5081298;28;20036;-42
2022/01/30 02:03:40;;;;;;;41.85;4.10;;;;;;;6.45;72.40;102760.59;5081357;28;20036;-41
2022/01/30 02:06:09;;;;;;;45.28;5.53;;;;;;;6.46;72.11;102768.50;5078163;28;20036;-42
2022/01/30 02:08:41;;;;;;;60.90;5.20;;;;;;;6.45;72.68;102760.59;5058424;28;20103;-41
2022/01/30 02:24:27;;;;;;;50.50;5.00;;;;;;;6.29;72.00;102774.16;5074210;28;20055;-41
2022/01/30 02:26:53;;;;;;;45.05;4.60;;;;;;;6.29;72.39;102767.03;5072855;28;20037;-41
2022/01/30 02:29:19;;;;;;;54.42;5.13;;;;;;;6.36;71.10;102762.94;5072904;28;20427;-41
2022/01/30 02:31:45;;;;;;;66.05;5.38;;;;;;;6.34;72.15;102761.34;5073186;28;20040;-41
2022/01/30 02:34:10;;;;;;;44.83;3.60;;;;;;;6.35;71.93;102765.75;5074722;28;20036;-41
2022/01/30 02:36:48;;;;;;;48.80;4.13;;;;;;;6.35;71.12;102766.59;5055451;28;20024;-42
2022/01/30 02:39:14;;;;;;;43.20;4.63;;;;;;;6.30;71.61;102767.88;5075178;28;20067;-40
2022/01/30 02:41:40;;;;;;;40.75;3.15;;;;;;;6.29;70.69;102769.69;5072264;28;20032;-41
2022/01/30 02:44:18;;;;;;;34.42;3.70;;;;;;;6.28;70.75;102772.47;5076197;28;20032;-41
2022/01/30 02:46:47;;;;;;;;;;;;;;;6.29;70.26;102775.06;5074108;28;20051;-41
2022/01/30 02:51:53;;;;;;;53.67;4.90;;;;;;;6.30;71.47;102774.06;5065340;28;20174;-40
2022/01/30 02:54:19;;;;;;;36.38;4.20;;;;;;;6.29;72.21;102772.38;5087976;28;20530;-40
2022/01/30 02:56:44;;;;;;;44.05;4.53;;;;;;;6.28;72.52;102769.78;5070330;28;20033;-40
2022/01/30 02:59:10;;;;;;;50.28;5.20;;;;;;;6.24;73.00;102762.94;5061617;28;20028;-41
2022/01/30 03:01:36;;;;;;;33.35;3.40;;;;;;;6.23;72.96;102772.78;5052074;28;20473;-41
2022/01/30 03:04:01;;;;;;;54.22;5.80;;;;;;;6.25;72.97;102770.88;5074444;28;20551;-42
2022/01/30 03:06:27;;;;;;;38.72;4.30;;;;;;;6.21;73.24;102774.69;5072482;28;20056;-41
2022/01/30 03:08:52;;;;;;;44.55;5.25;;;;;;;6.21;73.61;102773.84;5077701;28;20103;-41
2022/01/30 03:11:18;;;;;;;53.40;4.55;;;;;;;6.19;73.02;102778.44;5083599;28;20033;-41
2022/01/30 03:13:43;;;;;;;40.15;3.67;;;;;;;6.25;72.30;102778.88;5073646;28;20051;-41
2022/01/30 03:16:09;;;;;;;38.70;3.63;;;;;;;6.28;72.13;102784.03;5072410;28;20048;-41
2022/01/30 03:18:35;;;;;;;35.70;3.03;;;;;;;6.32;70.35;102780.19;5072991;28;20040;-41
2022/01/30 03:21:01;;;;;;;30.77;2.90;;;;;;;6.30;68.84;102790.13;5092111;28;20655;-41
2022/01/30 03:23:27;;;;;;;33.45;3.33;;;;;;;6.37;67.81;102786.06;5076289;28;20158;-41
2022/01/30 03:25:58;;;;;;;38.45;3.42;;;;;;;6.41;67.58;102796.53;5072935;28;20380;-41
2022/01/30 03:28:25;;;;;;;28.90;3.30;;;;;;;6.43;67.91;102795.47;5076880;28;20035;-42
2022/01/30 03:30:54;;;;;;;35.60;3.42;;;;;;;6.40;68.23;102794.81;5080336;28;20024;-42
2022/01/30 03:33:21;;;;;;;38.53;3.15;;;;;;;6.33;69.19;102792.56;5073851;28;20063;-41
2022/01/30 03:35:46;;;;;;;33.03;3.60;;;;;;;6.32;69.66;102787.34;5076204;28;20529;-41
2022/01/30 03:38:11;;;;;;;42.40;3.05;;;;;;;6.30;69.92;102790.13;5092693;28;20036;-40
2022/01/30 03:40:37;;;;;;;35.10;3.33;;;;;;;6.37;71.00;102787.84;5072686;28;20029;-41
2022/01/30 03:43:03;;;;;;;36.65;2.85;;;;;;;6.37;71.63;102801.22;5073269;28;20037;-41
2022/01/30 03:45:28;;;;;;;34.10;2.90;;;;;;;6.38;71.46;102801.13;5073205;28;20043;-41
2022/01/30 03:47:56;;;;;;;39.95;3.13;;;;;;;6.36;72.34;102800.38;5072431;28;20461;-41
2022/01/30 03:50:22;;;;;;;46.20;3.67;;;;;;;6.35;71.84;102790.66;5072636;28;20066;-41
2022/01/30 03:52:47;;;;;;;37.17;3.45;;;;;;;6.35;71.68;102792.47;5065437;28;20028;-41
2022/01/30 03:55:13;;;;;;;41.95;3.70;;;;;;;6.37;72.26;102799.44;5081566;28;20021;-41
2022/01/30 03:57:38;;;;;;;39.97;4.93;;;;;;;6.46;72.21;102797.94;5068596;28;20035;-40
2022/01/30 04:00:05;;;;;;;50.03;4.93;;;;;;;6.49;73.08;102807.56;5071258;28;20021;-41
2022/01/30 04:02:30;;;;;;;42.72;4.18;;;;;;;6.55;73.65;102818.69;5071114;28;20067;-41
2022/01/30 04:04:56;;;;;;;35.17;3.28;;;;;;;6.55;72.80;102815.16;5073551;28;20048;-42
2022/01/30 04:07:21;;;;;;;36.20;3.92;;;;;;;6.53;71.64;102799.22;5075140;28;20032;-41
2022/01/30 04:09:47;;;;;;;28.67;2.78;;;;;;;6.49;69.12;102800.38;5055298;28;20020;-41
2022/01/30 04:12:13;;;;;;;25.50;2.55;;;;;;;6.54;67.89;102798.25;5075476;28;20013;-41
2022/01/30 04:14:39;;;;;;;27.58;2.92;;;;;;;6.52;67.81;102802.00;5074851;28;20395;-41
2022/01/30 04:17:06;;;;;;;33.97;2.83;;;;;;;6.48;68.65;102811.22;5057448;28;20056;-40
2022/01/30 04:19:31;;;;;;;50.33;3.55;;;;;;;6.43;69.08;102808.84;5075418;28;20029;-41
2022/01/30 04:21:57;;;;;;;41.25;3.67;;;;;;;6.34;70.13;102818.34;5075680;28;20387;-41
2022/01/30 04:24:22;;;;;;;33.33;4.22;;;;;;;6.26;70.40;102826.03;5074482;28;20512;-41
2022/01/30 04:26:47;;;;;;;57.95;5.57;;;;;;;6.21;71.52;102828.19;5075024;28;20075;-41
2022/01/30 04:29:13;;;;;;;38.42;3.63;;;;;;;6.14;71.55;102826.91;5075056;28;20027;-41
2022/01/30 04:31:39;;;;;;;37.40;3.70;;;;;;;6.17;70.94;102816.00;5075337;28;20372;-41
2022/01/30 04:34:04;;;;;;;46.75;3.42;;;;;;;6.10;71.68;102814.69;5074838;28;20464;-42
2022/01/30 04:36:35;;;;;;;30.58;3.35;;;;;;;6.08;71.78;102812.13;5075227;28;20488;-41
2022/01/30 04:52:02;;;;;;;34.28;3.33;;;;;;;6.05;72.19;102824.84;5023958;28;20048;-41
2022/01/30 05:00:51;;;;;;;33.58;3.50;;;;;;;5.90;70.13;102845.41;5074635;28;20055;-41
2022/01/30 05:06:07;;;;;;;33.45;3.63;;;;;;;5.89;68.32;102849.88;5072554;28;20066;-43
2022/01/30 05:08:33;;;;;;;36.05;3.70;;;;;;;5.84;68.80;102846.66;5073496;28;20042;-41
2022/01/30 05:11:01;;;;;;;38.65;3.83;;;;;;;5.81;69.96;102841.53;5073829;28;20491;-41
2022/01/30 05:13:30;;;;;;;36.00;4.25;;;;;;;5.89;68.80;102844.53;5074020;28;20059;-41
2022/01/30 05:15:55;;;;;;;48.53;4.30;;;;;;;5.87;68.82;102845.59;5073869;28;20115;-41
2022/01/30 05:18:26;;;;;;;58.53;5.07;;;;;;;5.87;68.65;102851.81;5074007;28;20073;-43
2022/01/30 05:20:52;;;;;;;51.53;3.65;;;;;;;5.88;69.70;102858.88;5059485;28;20044;-41
2022/01/30 05:23:17;;;;;;;41.35;3.45;;;;;;;5.85;69.36;102859.06;5073708;28;20045;-40
2022/01/30 05:25:47;;;;;;;56.17;4.72;;;;;;;5.93;69.14;102866.59;5073854;28;20033;-40
2022/01/30 05:28:13;;;;;;;49.92;4.38;;;;;;;5.85;69.71;102867.09;5055950;28;20033;-40
2022/01/30 05:30:39;;;;;;;58.67;4.60;;;;;;;5.85;68.89;102875.09;5073910;28;20082;-40
2022/01/30 05:33:05;;;;;;;43.22;4.90;;;;;;;5.88;68.79;102874.91;5073945;28;20040;-40
2022/01/30 05:35:30;;;;;;;55.30;4.05;;;;;;;5.85;68.24;102875.09;5073028;28;20087;-41
2022/01/30 05:37:56;;;;;;;31.20;3.50;;;;;;;5.83;68.16;102877.03;5072273;28;20069;-40
2022/01/30 05:40:25;;;;;;;47.40;4.20;;;;;;;5.85;68.38;102883.13;5057490;28;20017;-41
2022/01/30 05:42:51;;;;;;;46.97;3.30;;;;;;;5.81;68.67;102889.63;5070677;28;20091;-41
2022/01/30 05:45:21;;;;;;;66.57;4.82;;;;;;;5.92;68.16;102888.91;5071354;28;20532;-41
2022/01/30 05:47:54;;;;;;;46.08;3.90;;;;;;;5.91;68.42;102901.41;5053685;28;20365;-41
2022/01/30 05:50:19;;;;;;;39.20;3.90;;;;;;;5.96;68.28;102902.97;5071571;28;20029;-41
2022/01/30 05:52:45;;;;;;;52.45;4.38;;;;;;;6.12;68.12;102909.03;5071425;28;20016;-42
2022/01/30 05:55:10;;;;;;;48.13;4.30;;;;;;;6.11;68.38;102907.31;5070953;28;20067;-41
2022/01/30 05:57:35;;;;;;;50.85;4.55;;;;;;;6.13;69.46;102922.28;5070948;28;20021;-43
2022/01/30 06:00:01;;;;;;;71.07;7.03;;;;;;;6.24;69.56;102924.25;5055678;28;20358;-40
2022/01/30 06:02:26;;;;;;;60.33;4.40;;;;;;;6.15;69.31;102925.69;5069340;28;20459;-41
2022/01/30 06:04:51;;;;;;;42.53;4.60;;;;;;;6.08;69.64;102935.09;5050974;28;20103;-40
2022/01/30 06:07:21;;;;;;;35.78;3.80;;;;;;;6.06;67.88;102931.66;5070687;28;20068;-42
2022/01/30 06:09:46;;;;;;;40.08;3.60;;;;;;;6.02;67.42;102940.84;5071144;28;20028;-41
2022/01/30 06:12:12;;;;;;;51.60;5.80;;;;;;;6.08;66.24;102940.44;5069096;28;20548;-40
2022/01/30 06:14:37;;;;;;;41.55;4.65;;;;;;;6.02;66.46;102940.84;5063262;28;20105;-40
2022/01/30 06:17:02;;;;;;;42.50;4.95;;;;;;;5.99;66.16;102940.19;5069902;28;20020;-42
2022/01/30 06:19:28;;;;;;;50.60;4.80;;;;;;;5.98;65.86;102946.47;5070584;28;20491;-40
2022/01/30 06:21:53;;;;;;;50.30;7.13;;;;;;;5.98;65.57;102954.50;5070788;28;20127;-42
2022/01/30 06:24:18;;;;;;;51.40;4.05;;;;;;;5.96;65.96;102956.44;5070575;28;20033;-41
2022/01/30 06:26:44;;;;;;;50.35;3.88;;;;;;;5.98;65.76;102944.69;5070859;28;20522;-41
2022/01/30 06:29:09;;;;;;;41.67;4.20;;;;;;;5.90;65.57;102941.63;5047607;28;20037;-41
2022/01/30 06:31:34;;;;;;;39.50;3.67;;;;;;;5.89;66.11;102956.78;5070009;28;20374;-41
2022/01/30 06:34:00;;;;;;;41.22;3.63;;;;;;;5.86;66.42;102948.97;5069459;28;20060;-41
2022/01/30 06:36:25;;;;;;;40.53;4.13;;;;;;;5.98;66.58;102951.81;5065643;28;20123;-41
2022/01/30 06:38:52;;;;;;;34.35;3.83;;;;;;;5.87;67.03;102956.03;5069177;28;20525;-42
2022/01/30 06:41:18;;;;;;;65.70;5.77;;;;;;;5.87;67.47;102952.50;5069859;28;20079;-41
2022/01/30 06:43:43;;;;;;;49.75;4.80;;;;;;;5.89;67.34;102955.94;5070799;28;20060;-42
2022/01/30 06:46:11;;;;;;;49.15;4.93;;;;;;;5.91;67.06;102954.88;5070343;28;20531;-41
2022/01/30 06:48:36;;;;;;;56.17;5.47;;;;;;;6.03;66.26;102960.41;5070486;28;20025;-43
2022/01/30 06:51:02;;;;;;;55.42;4.85;;;;;;;6.05;66.14;102956.66;5048518;28;20099;-42
2022/01/30 06:53:27;;;;;;;51.50;4.10;;;;;;;6.07;65.91;102953.91;5067687;28;20417;-40
2022/01/30 06:55:52;;;;;;;52.60;4.97;;;;;;;6.05;66.70;102953.13;5068870;28;20111;-40
2022/01/30 06:58:18;;;;;;;48.05;4.38;;;;;;;5.97;67.19;102952.78;5066264;28;20099;-41
2022/01/30 07:00:43;;;;;;;41.35;4.18;;;;;;;5.87;68.00;102957.84;5065983;28;20029;-42
2022/01/30 07:03:08;;;;;;;51.15;6.18;;;;;;;5.82;68.32;102955.47;5067447;28;20044;-41
2022/01/30 07:05:34;;;;;;;54.15;4.85;;;;;;;5.82;68.82;102960.81;5068254;28;20497;-40
2022/01/30 07:07:59;;;;;;;61.50;5.43;;;;;;;5.78;69.77;102964.63;5068141;28;20035;-42
2022/01/30 07:10:24;;;;;;;44.67;4.93;;;;;;;5.72;70.19;102967.72;5068536;28;20036;-41
2022/01/30 07:12:50;;;;;;;52.20;4.90;;;;;;;5.67;69.97;102977.84;5068356;28;20043;-41
2022/01/30 07:15:15;;;;;;;38.40;3.83;;;;;;;5.67;69.89;102977.84;5058766;28;20032;-42
2022/01/30 07:17:42;;;;;;;51.30;5.00;;;;;;;5.61;70.44;102983.53;5069024;28;20036;-40
2022/01/30 07:20:08;;;;;;;42.05;3.75;;;;;;;5.56;70.36;102991.88;5068855;28;20025;-40
2022/01/30 07:22:34;;;;;;;48.30;5.00;;;;;;;5.58;70.64;102999.78;5063710;28;20028;-41
2022/01/30 07:24:59;;;;;;;67.82;6.15;;;;;;;5.51;71.20;103010.00;5052501;28;20028;-41
2022/01/30 07:27:25;;;;;;;56.60;4.65;;;;;;;5.50;71.29;103017.16;5067145;28;20500;-41
2022/01/30 07:29:50;;;;;;;63.50;5.05;;;;;;;5.46;71.62;103012.94;5068631;28;20036;-41
2022/01/30 07:32:15;;;;;;;60.53;5.75;;;;;;;5.46;71.68;103018.28;5050307;28;20028;-41
2022/01/30 07:34:41;;;;;;;47.90;4.18;;;;;;;5.50;71.84;103009.16;5050483;28;20040;-41
2022/01/30 07:37:08;;;;;;;68.80;5.93;;;;;;;5.50;71.73;103003.81;5066304;28;20029;-41
2022/01/30 07:39:36;;;;;;;55.83;4.67;;;;;;;5.54;71.75;103006.28;5068092;28;20446;-41
2022/01/30 07:42:02;;;;;;;46.73;4.40;;;;;;;5.54;71.72;103011.63;5068841;28;20267;-41
2022/01/30 07:44:27;;;;;;;60.33;5.30;;;;;;;5.58;71.41;103000.66;5066589;28;20295;-42
2022/01/30 07:46:52;;;;;;;57.50;4.95;;;;;;;5.62;71.46;103006.66;5069924;28;20024;-42
2022/01/30 07:49:18;;;;;;;50.38;4.13;;;;;;;5.64;71.21;103000.25;5051682;28;20051;-42
2022/01/30 07:51:43;;;;;;;48.28;3.97;;;;;;;5.71;70.36;103000.72;5064956;28;20037;-42
2022/01/30 07:54:08;;;;;;;60.47;6.03;;;;;;;5.77;70.37;103003.00;5072460;28;20387;-40
2022/01/30 07:56:34;;;;;;;58.83;5.32;;;;;;;5.78;70.23;103002.03;5071983;28;20446;-40
2022/01/30 07:58:59;;;;;;;65.88;6.03;;;;;;;5.84;70.07;103001.66;5071780;28;20041;-41
2022/01/30 08:01:25;;;;;;;52.00;4.40;;;;;;;5.87;70.02;102998.81;5072399;28;20467;-41
2022/01/30 08:03:50;;;;;;;64.22;4.85;;;;;;;5.93;69.81;103010.91;5072144;28;20107;-42
2022/01/30 08:06:15;;;;;;;53.20;4.15;;;;;;;6.01;68.85;103008.63;5071512;28;20043;-41
2022/01/30 08:08:41;;;;;;;45.75;3.85;;;;;;;6.08;69.07;103003.72;5071845;28;20036;-41
2022/01/30 08:11:09;;;;;;;60.45;5.57;;;;;;;6.15;68.77;103010.41;5066523;28;20060;-41
2022/01/30 08:13:35;;;;;;;64.80;5.90;;;;;;;6.22;68.60;103019.75;5073464;28;20028;-41
2022/01/30 08:16:00;;;;;;;46.35;4.45;;;;;;;6.31;68.25;103018.28;5072700;28;20085;-42
2022/01/30 08:18:26;;;;;;;46.25;5.50;;;;;;;6.40;67.79;103019.47;5074484;28;20070;-41
2022/01/30 08:20:51;;;;;;;51.30;4.13;;;;;;;6.49;67.13;103009.03;5075197;28;20120;-41
2022/01/30 08:23:18;;;;;;;47.35;4.60;;;;;;;6.56;66.68;103021.06;5051486;28;20094;-41
2022/01/30 08:25:44;;;;;;;42.13;4.43;;;;;;;6.60;66.21;103019.03;5074428;28;20029;-40
2022/01/30 08:28:09;;;;;;;50.90;4.65;;;;;;;6.55;67.19;103013.13;5074235;28;20089;-40
2022/01/30 08:30:35;;;;;;;40.50;4.53;;;;;;;6.65;67.26;103022.25;5070126;28;20029;-42
2022/01/30 08:33:02;;;;;;;54.42;5.20;;;;;;;6.79;66.52;103022.19;5055580;28;20039;-41
2022/01/30 08:35:27;;;;;;;48.92;4.68;;;;;;;6.94;65.90;103024.78;5055452;28;20023;-41
2022/01/30 08:37:53;;;;;;;44.40;4.07;;;;;;;6.99;65.83;103025.31;5055894;28;20028;-41
2022/01/30 08:40:19;;;;;;;55.42;5.57;;;;;;;7.04;65.56;103025.88;5074468;28;20131;-40
2022/01/30 08:42:45;;;;;;;56.22;5.20;;;;;;;7.16;65.42;103024.16;5073782;28;20029;-41
2022/01/30 08:45:12;;;;;;;59.75;4.93;;;;;;;7.19;65.49;103030.19;5049302;28;20041;-41
2022/01/30 08:47:40;;;;;;;76.43;7.53;;;;;;;7.41;64.18;103031.34;5074312;28;20033;-42
2022/01/30 08:50:05;;;;;;;62.03;5.05;;;;;;;7.34;63.87;103033.59;5056314;28;20039;-41
2022/01/30 08:52:31;;;;;;;59.95;5.00;;;;;;;7.75;63.37;103031.66;5053984;28;20021;-41
2022/01/30 08:54:56;;;;;;;39.00;4.05;;;;;;;8.06;62.72;103030.31;5073068;28;20107;-41
2022/01/30 08:57:22;;;;;;;50.65;5.45;;;;;;;8.71;61.36;103029.06;5073169;28;20082;-39
2022/01/30 08:59:47;;;;;;;52.17;5.72;;;;;;;9.43;60.41;103034.28;5075486;28;20054;-41
2022/01/30 09:02:13;;;;;;;54.88;5.25;;;;;;;10.23;58.43;103034.06;5076119;28;20020;-40
2022/01/30 09:04:38;;;;;;;59.03;6.20;;;;;;;11.30;54.65;103029.59;5074450;28;20776;-41
2022/01/30 09:07:04;;;;;;;49.42;5.68;;;;;;;11.78;52.95;103033.50;5074237;28;20056;-41
2022/01/30 09:09:32;;;;;;;49.15;4.63;;;;;;;11.76;52.96;103040.88;5074132;28;20400;-41
2022/01/30 09:12:03;;;;;;;50.92;4.93;;;;;;;11.54;53.01;103053.56;5074433;28;20400;-40
2022/01/30 09:14:29;;;;;;;42.83;5.18;;;;;;;11.80;51.76;103058.50;5074418;28;20070;-41
2022/01/30 09:16:54;;;;;;;51.30;5.07;;;;;;;12.05;51.38;103052.63;5072955;28;20052;-39
2022/01/30 09:19:20;;;;;;;41.97;5.68;;;;;;;12.11;52.08;103061.19;5073904;28;20456;-41
2022/01/30 09:21:46;;;;;;;47.10;5.18;;;;;;;12.48;49.77;103053.28;5055326;28;20074;-41
2022/01/30 09:24:12;;;;;;;38.45;4.65;;;;;;;12.77;49.69;103063.28;5071537;28;20115;-41
2022/01/30 09:26:37;;;;;;;46.65;5.45;;;;;;;12.85;48.73;103068.81;5073573;28;20442;-43
2022/01/30 09:29:03;;;;;;;49.00;5.85;;;;;;;12.02;50.96;103077.22;5073135;28;20068;-42
2022/01/30 09:31:28;;;;;;;52.60;5.05;;;;;;;11.48;52.07;103082.88;5072776;28;20028;-42
2022/01/30 09:33:53;;;;;;;61.25;6.07;;;;;;;10.83;53.64;103083.00;5073441;28;20064;-41
2022/01/30 09:36:18;;;;;;;47.33;5.13;;;;;;;10.69;54.35;103084.16;5073254;28;20020;-42
2022/01/30 09:38:44;;;;;;;55.03;5.00;;;;;;;10.85;53.23;103088.25;5073785;28;20432;-42
2022/01/30 09:41:10;;;;;;;33.92;4.55;;;;;;;11.20;53.94;103080.72;5073500;28;20016;-42
2022/01/30 09:43:35;;;;;;;49.13;4.15;;;;;;;11.50;52.12;103092.56;5030223;28;20404;-42
2022/01/30 09:46:02;;;;;;;53.05;6.05;;;;;;;11.59;52.89;103088.22;5052327;28;20384;-42
2022/01/30 09:48:27;;;;;;;46.60;5.35;;;;;;;11.99;50.96;103085.59;5069509;28;20032;-41
2022/01/30 09:50:54;;;;;;;46.17;4.60;;;;;;;11.59;51.98;103083.69;5073305;28;20039;-41
2022/01/30 09:53:20;;;;;;;49.80;5.60;;;;;;;10.99;54.66;103086.09;5073008;28;20491;-41
2022/01/30 09:55:45;;;;;;;37.20;4.55;;;;;;;10.55;55.86;103081.75;5055512;28;20063;-41
2022/01/30 09:58:10;;;;;;;57.88;6.40;;;;;;;10.27;55.99;103077.75;5053234;28;20455;-41
2022/01/30 10:00:36;;;;;;;46.90;4.85;;;;;;;10.00;56.15;103075.44;5070071;28;20009;-41
2022/01/30 10:03:02;;;;;;;54.13;5.22;;;;;;;9.86;56.24;103068.50;5071145;28;20110;-41
2022/01/30 10:05:32;;;;;;;63.55;7.32;;;;;;;9.56;58.07;103079.88;5072654;28;20483;-41
2022/01/30 10:07:58;;;;;;;42.80;5.57;;;;;;;9.64;57.76;103085.50;5070821;28;20054;-41
2022/01/30 10:10:26;;;;;;;66.95;4.97;;;;;;;9.76;56.55;103081.81;5038404;28;20092;-42
2022/01/30 10:13:11;;;;;;;49.55;5.80;;;;;;;9.78;56.66;103079.88;5073337;28;20116;-41
2022/01/30 10:15:55;;;;;;;59.83;6.43;;;;;;;9.99;56.20;103089.91;5072555;28;20021;-42
2022/01/30 10:18:21;;;;;;;49.42;5.22;;;;;;;9.86;57.16;103096.25;5072378;28;20407;-40
2022/01/30 10:20:47;;;;;;;48.25;5.07;;;;;;;10.20;56.58;103093.53;5071881;28;20028;-41
2022/01/30 10:23:12;;;;;;;50.35;4.82;;;;;;;11.16;54.54;103092.78;5072399;28;20067;-40
2022/01/30 10:26:01;;;;;;;62.00;5.65;;;;;;;11.56;53.33;103094.72;5072206;28;20029;-41
2022/01/30 10:28:30;;;;;;;;;;;;;;;12.13;51.12;103095.16;5072550;28;20099;-41
2022/01/30 10:31:06;;;;;;;47.17;5.07;;;;;;;11.99;51.91;103109.03;5054446;28;19919;-41
2022/01/30 10:33:41;;;;;;;51.63;4.45;;;;;;;12.02;49.86;103104.19;5071718;28;20028;-41
2022/01/30 10:36:11;;;;;;;47.45;4.60;;;;;;;11.88;50.20;103096.50;5071895;28;20028;-42
2022/01/30 10:38:46;;;;;;;55.30;5.75;;;;;;;11.80;50.96;103101.69;5072490;28;20392;-41
2022/01/30 10:41:17;;;;;;;41.10;4.43;;;;;;;11.86;50.33;103103.84;5071284;28;20028;-44
2022/01/30 10:44:00;;;;;;;41.35;5.32;;;;;;;11.62;50.94;103115.78;5070428;28;20067;-42
2022/01/30 10:46:33;;;;;;;45.13;5.38;;;;;;;11.42;50.58;103108.53;5072175;28;20456;-41
2022/01/30 10:49:00;;;;;;;36.38;4.28;;;;;;;11.57;49.92;103115.31;5072643;28;20373;-41
2022/01/30 10:51:30;;;;;;;40.47;4.97;;;;;;;11.38;50.91;103107.13;5071752;28;20113;-40
2022/01/30 10:53:57;;;;;;;61.20;5.90;;;;;;;11.28;52.58;103112.44;5071399;28;20029;-41
2022/01/30 10:56:26;;;;;;;41.20;4.70;;;;;;;11.60;50.43;103106.09;5068572;28;20086;-41
2022/01/30 10:59:13;;;;;;;58.78;6.25;;;;;;;12.02;49.78;103106.91;5071790;28;20020;-41
2022/01/30 11:01:41;;;;;;;49.28;5.95;;;;;;;12.18;47.92;103100.13;5068680;28;20055;-40
2022/01/30 11:04:07;;;;;;;35.08;4.75;;;;;;;11.98;48.53;103108.19;5071700;28;20052;-40
2022/01/30 11:06:38;;;;;;;46.65;5.78;;;;;;;12.01;49.21;103110.59;5053873;28;20024;-41
2022/01/30 11:09:10;;;;;;;58.92;5.80;;;;;;;11.72;48.56;103115.84;5069428;28;20099;-41
2022/01/30 11:11:44;;;;;;;54.85;6.40;;;;;;;11.51;49.22;103113.16;5060894;28;20116;-41
2022/01/30 11:19:20;;;;;;;41.00;4.65;;;;;;;10.03;51.49;103123.63;5071857;28;20051;-40
2022/01/30 11:21:51;;;;;;;50.83;5.55;;;;;;;10.38;53.02;103111.91;5075505;28;20025;-42
2022/01/30 11:24:17;;;;;;;40.38;4.68;;;;;;;10.76;51.25;103122.19;5072160;28;20111;-40
2022/01/30 11:26:43;;;;;;;61.25;5.35;;;;;;;11.18;52.09;103106.94;5075868;28;20519;-43
2022/01/30 11:29:10;;;;;;;50.53;5.97;;;;;;;11.89;50.05;103119.78;5076404;28;20020;-41
2022/01/30 11:31:36;;;;;;;48.67;4.88;;;;;;;12.35;48.74;103109.41;5057689;28;20036;-41
2022/01/30 11:34:02;;;;;;;43.15;5.30;;;;;;;13.02;45.42;103105.09;5074679;28;20032;-41
2022/01/30 11:36:28;;;;;;;46.58;6.82;;;;;;;13.07;45.11;103110.94;5071173;28;20029;-40
2022/01/30 11:38:53;;;;;;;51.28;5.75;;;;;;;12.74;45.31;103107.63;5075146;28;20028;-40
2022/01/30 11:41:20;;;;;;;48.88;5.18;;;;;;;12.98;44.28;103109.06;5075013;28;20028;-43
2022/01/30 11:44:17;;;;;;;51.87;5.60;;;;;;;12.59;45.49;103091.00;5046008;28;20025;-41
2022/01/30 11:46:42;;;;;;;39.83;5.15;;;;;;;12.17;47.06;103095.75;5074905;28;20024;-40
2022/01/30 11:49:14;;;;;;;58.50;5.32;;;;;;;11.67;47.56;103098.34;5075838;28;20389;-40
2022/01/30 11:51:53;;;;;;;58.97;5.22;;;;;;;11.59;49.00;103091.78;5073994;28;20021;-40
2022/01/30 11:54:40;;;;;;;65.10;5.60;;;;;;;12.28;48.39;103090.22;5057254;28;20028;-40
2022/01/30 11:57:27;;;;;;;49.15;4.97;;;;;;;11.95;47.48;103089.53;5075560;28;20020;-41
2022/01/30 12:00:02;;;;;;;45.35;5.03;;;;;;;11.76;46.83;103078.63;5057804;28;20423;-41
2022/01/30 12:02:33;;;;;;;56.17;5.82;;;;;;;11.21;47.15;103078.88;5075249;28;20043;-40
2022/01/30 12:05:09;;;;;;;44.70;4.93;;;;;;;10.74;48.22;103070.28;5075192;28;20033;-40
2022/01/30 12:07:41;;;;;;;52.75;6.25;;;;;;;10.84;48.12;103073.06;5047944;28;20487;-41
2022/01/30 12:10:30;;;;;;;51.03;6.20;;;;;;;11.13;48.91;103057.13;5073426;28;20020;-41
2022/01/30 12:13:03;;;;;;;50.47;5.10;;;;;;;11.67;48.43;103057.88;5075185;28;20028;-41
2022/01/30 12:15:41;;;;;;;60.88;5.40;;;;;;;12.26;45.46;103052.56;5075105;28;20040;-40
2022/01/30 12:18:08;;;;;;;59.63;5.50;;;;;;;12.43;45.84;103051.03;5074448;28;20130;-41
2022/01/30 12:21:01;;;;;;;36.28;5.07;;;;;;;12.71;44.84;103043.94;5074690;28;20407;-41
2022/01/30 12:23:28;;;;;;;53.88;6.75;;;;;;;12.93;44.18;103037.41;5074432;28;20501;-40
2022/01/30 12:26:03;;;;;;;59.05;5.57;;;;;;;12.60;45.60;103037.81;5073963;28;20086;-41